Niles, Mississippi
Current Conditions -  °F | °C
As of 6:15 PM on Wednesday 22 Oct 2014 (Local Time) from KRNV Reporting Station
Clear Clear  
Wind Chill: 17°   Ceiling: Unl
Heat Index: 17°   Visibility: 10mi
Dew Point:   Wind: 6mph
Humidity: 55%   Direction: 40°NE
Pressure: 30.14"   Gusts: NA
Location:  33.8277°N, 90.9559°W
Report Text: KRNV 222315Z AUTO 04005KT 10SM CLR 17/08 A3014 RMK AO2 T01710080
Loading
Personal Weather Stations






























Interactive Weather Map
Tropical Storm Tracking
New forecast layout! Learn more

10-Day Weather Forecast

Advertisements
Track Severe Weather on mobile